KMGC

Michigan City Municipal-Phillips Field Airport

Michigan City, Indiana, USA
METAR KMGC 190855Z AUTO 00000KT 10SM SCT010 17/17 A3002 RMK AO2
Observed Flight Rules
Sep-19 @ 08:55 UTC (10 minutes ago) Visual Flight Rules
Visibility Clouds
10 miles
  • Scattered at 1,000' AGL
Temperatures Readings
Current 17°C / 63°F
Dewpoint 17°C / 63°F
Humidity 100%
Altimeter 30.02" Hg
Pressure 1017 hPa
Elevation 200
METAR KMGC 190855Z AUTO 00000KT 10SM SCT010 17/17 A3002 RMK AO2
Observed Flight Rules
Sep-19 @ 08:55 UTC
(10 minutes ago)
VFR
Clouds
  • Scattered at 1,000' AGL
Temperature Dewpoint
17°C / 63°F 17°C / 63°F
Humidity Altimeter Pressure
100% 30.02" Hg 1017 hPa